createdAt,value
2023-03-25T00:00:18.778Z,2.35
2023-03-25T00:01:25.621Z,2.20
2023-03-25T00:02:30.260Z,1.90
2023-03-25T00:03:37.352Z,1.70
2023-03-25T00:04:40.908Z,2.05
2023-03-25T00:05:43.224Z,1.83
2023-03-25T00:06:45.838Z,1.90
2023-03-25T00:07:51.563Z,1.88
2023-03-25T00:08:55.078Z,2.00
2023-03-25T00:09:57.469Z,1.77
2023-03-25T00:11:03.178Z,1.90
2023-03-25T00:12:05.768Z,1.80
2023-03-25T00:13:08.378Z,1.70
2023-03-25T00:14:12.306Z,1.50
2023-03-25T00:15:16.298Z,1.73
2023-03-25T00:16:19.140Z,1.48
2023-03-25T00:17:28.943Z,1.27
2023-03-25T00:18:35.337Z,1.70
2023-03-25T00:19:37.715Z,1.67
2023-03-25T00:20:41.137Z,1.67
2023-03-25T00:21:46.490Z,1.73
2023-03-25T00:22:48.796Z,1.70
2023-03-25T00:23:51.225Z,1.35
2023-03-25T00:24:53.615Z,1.52
2023-03-25T00:26:00.354Z,1.40
2023-03-25T00:27:03.346Z,1.60
2023-03-25T00:28:06.095Z,1.45
2023-03-25T00:29:10.921Z,1.65
2023-03-25T00:30:14.511Z,1.38
2023-03-25T00:31:16.922Z,1.23
2023-03-25T00:32:20.985Z,1.30
2023-03-25T00:33:23.324Z,1.38
2023-03-25T00:34:25.778Z,1.13
2023-03-25T00:35:28.993Z,1.30
2023-03-25T00:36:31.441Z,1.45
2023-03-25T00:37:33.996Z,1.50
2023-03-25T00:38:38.088Z,1.48
2023-03-25T00:39:40.562Z,1.60
2023-03-25T00:40:42.845Z,1.48
2023-03-25T00:41:45.104Z,1.05
2023-03-25T00:42:50.311Z,1.20
2023-03-25T00:43:55.522Z,1.67
2023-03-25T00:44:58.045Z,1.05
2023-03-25T00:46:00.764Z,1.05
2023-03-25T00:47:03.363Z,1.40
2023-03-25T00:48:07.124Z,0.90
2023-03-25T00:49:09.946Z,1.40
2023-03-25T00:50:12.827Z,1.13
2023-03-25T00:51:19.278Z,0.90
2023-03-25T00:52:22.965Z,1.10
2023-03-25T00:53:25.797Z,1.02
2023-03-25T00:54:28.315Z,1.02
2023-03-25T00:55:31.141Z,1.40
2023-03-25T00:56:33.798Z,1.02
2023-03-25T00:57:36.556Z,0.98
2023-03-25T00:58:38.922Z,1.00
2023-03-25T00:59:41.235Z,1.25
2023-03-25T01:00:43.558Z,1.00
2023-03-25T01:01:46.150Z,0.98
2023-03-25T01:02:53.783Z,0.85
2023-03-25T01:03:58.425Z,1.10
2023-03-25T01:05:01.975Z,0.88
2023-03-25T01:06:09.149Z,0.95
2023-03-25T01:07:12.591Z,0.80
2023-03-25T01:08:14.917Z,0.98
2023-03-25T01:09:19.137Z,0.90
2023-03-25T01:10:22.506Z,1.17
2023-03-25T01:11:30.343Z,1.05
2023-03-25T01:12:32.878Z,0.90
2023-03-25T01:13:35.382Z,0.90
2023-03-25T01:14:37.994Z,1.00
2023-03-25T01:15:40.906Z,0.98
2023-03-25T01:16:45.425Z,1.17
2023-03-25T01:17:47.814Z,0.95
2023-03-25T01:18:50.228Z,0.82
2023-03-25T01:19:53.202Z,1.00
2023-03-25T01:20:56.195Z,0.98
2023-03-25T01:21:58.669Z,0.98
2023-03-25T01:23:01.041Z,0.68
2023-03-25T01:24:04.487Z,0.60
2023-03-25T01:25:07.086Z,0.75
2023-03-25T01:26:09.966Z,0.85
2023-03-25T01:27:14.677Z,0.60
2023-03-25T01:28:17.075Z,1.00
2023-03-25T01:29:21.285Z,1.02
2023-03-25T01:30:23.565Z,0.93
2023-03-25T01:31:30.230Z,0.70
2023-03-25T01:32:32.819Z,0.77
2023-03-25T01:33:35.195Z,0.80
2023-03-25T01:34:38.567Z,0.90
2023-03-25T01:35:41.591Z,0.70
2023-03-25T01:36:46.575Z,0.80
2023-03-25T01:37:49.620Z,0.63
2023-03-25T01:38:52.336Z,0.80
2023-03-25T01:39:54.782Z,0.80
2023-03-25T01:40:57.841Z,0.60
2023-03-25T01:42:00.247Z,0.85
2023-03-25T01:43:02.602Z,1.02
2023-03-25T01:44:30.862Z,0.60
2023-03-25T01:45:33.248Z,0.70
2023-03-25T01:46:38.523Z,0.68
2023-03-25T01:47:43.476Z,0.60
2023-03-25T01:48:49.929Z,0.65
2023-03-25T01:49:54.142Z,0.88
2023-03-25T01:51:02.233Z,0.63
2023-03-25T01:52:14.427Z,0.82
2023-03-25T01:53:17.024Z,0.70
2023-03-25T01:54:19.900Z,0.70
2023-03-25T01:55:24.100Z,0.60
2023-03-25T01:56:31.895Z,0.55
2023-03-25T01:57:34.280Z,0.68
2023-03-25T01:58:37.017Z,0.55
2023-03-25T01:59:40.555Z,0.68
2023-03-25T02:00:45.676Z,0.70
2023-03-25T02:01:48.769Z,0.60
2023-03-25T02:02:52.607Z,0.50
2023-03-25T02:04:03.033Z,0.70
2023-03-25T02:05:11.866Z,0.50
2023-03-25T02:06:28.829Z,0.50
2023-03-25T02:07:35.280Z,0.50
2023-03-25T02:08:41.461Z,0.57
2023-03-25T02:09:43.742Z,0.60
2023-03-25T02:10:47.111Z,0.90
2023-03-25T02:11:50.498Z,0.82
2023-03-25T02:12:52.892Z,0.40
2023-03-25T02:14:02.413Z,0.73
2023-03-25T02:15:08.191Z,0.30
2023-03-25T02:16:16.318Z,0.60
2023-03-25T02:17:42.285Z,0.50
2023-03-25T02:19:06.916Z,0.57
2023-03-25T02:20:21.294Z,0.52
2023-03-25T02:22:01.100Z,0.45
2023-03-25T02:23:28.443Z,0.38
2023-03-25T02:25:14.060Z,0.60
2023-03-25T02:26:50.036Z,0.60
2023-03-25T02:28:03.384Z,0.40
2023-03-25T02:29:23.971Z,0.50
2023-03-25T02:30:46.334Z,0.50
2023-03-25T02:32:25.785Z,0.60
2023-03-25T02:33:57.090Z,0.40
2023-03-25T02:35:08.994Z,0.40
2023-03-25T02:36:41.553Z,0.40
2023-03-25T02:38:14.658Z,0.40
2023-03-25T02:39:28.163Z,0.45
2023-03-25T02:40:40.451Z,0.43
2023-03-25T02:41:59.909Z,0.60
2023-03-25T02:43:18.307Z,0.50
2023-03-25T02:44:41.605Z,0.40
2023-03-25T02:46:08.809Z,0.60
2023-03-25T02:47:19.294Z,0.40
2023-03-25T02:48:39.018Z,25.48
2023-03-25T02:49:48.064Z,24.75
2023-03-25T02:50:54.313Z,12.82
2023-03-25T02:52:14.708Z,7.20
2023-03-25T02:53:39.825Z,5.80
2023-03-25T02:54:45.109Z,4.75
2023-03-25T02:55:51.257Z,3.80
2023-03-25T02:56:57.838Z,3.08
2023-03-25T02:58:04.307Z,2.45
2023-03-25T02:59:09.759Z,2.33
2023-03-25T03:00:15.917Z,2.10
2023-03-25T03:01:18.412Z,2.22
2023-03-25T03:02:25.734Z,1.75
2023-03-25T03:03:28.900Z,1.38
2023-03-25T03:04:49.259Z,1.40
2023-03-25T03:05:55.417Z,1.90
2023-03-25T03:06:58.154Z,1.48
2023-03-25T03:08:24.380Z,1.38
2023-03-25T03:09:45.308Z,1.23
2023-03-25T03:11:17.622Z,1.00
2023-03-25T03:12:52.156Z,9.27
2023-03-25T03:13:57.892Z,11.90
2023-03-25T03:15:35.281Z,4.07
2023-03-25T03:17:12.843Z,14.77
2023-03-25T03:18:38.579Z,8.73
2023-03-25T03:19:52.222Z,6.50
2023-03-25T03:21:23.086Z,6.25
2023-03-25T03:22:35.652Z,4.00
2023-03-25T03:24:16.782Z,3.72
2023-03-25T03:25:31.879Z,2.78
2023-03-25T03:26:41.588Z,2.75
2023-03-25T03:27:56.496Z,2.53
2023-03-25T03:29:07.800Z,2.40
2023-03-25T03:30:22.566Z,2.17
2023-03-25T03:32:06.675Z,2.10
2023-03-25T03:33:15.437Z,1.77
2023-03-25T03:34:28.831Z,1.92
2023-03-25T03:35:38.355Z,1.80
2023-03-25T03:36:47.162Z,1.77
2023-03-25T03:38:03.784Z,1.40
2023-03-25T03:39:41.748Z,2.15
2023-03-25T03:40:50.203Z,1.75
2023-03-25T03:41:59.704Z,1.48
2023-03-25T03:43:07.783Z,1.60
2023-03-25T03:44:14.866Z,1.42
2023-03-25T03:45:27.616Z,1.50
2023-03-25T03:46:54.580Z,12.05
2023-03-25T03:47:59.833Z,28.15
2023-03-25T03:49:04.280Z,14.85
2023-03-25T03:50:14.489Z,19.05
2023-03-25T03:51:21.651Z,8.18
2023-03-25T03:52:43.679Z,7.50
2023-03-25T03:53:50.806Z,7.18
2023-03-25T03:55:00.779Z,7.53
2023-03-25T03:56:38.614Z,7.68
2023-03-25T03:57:56.519Z,6.50
2023-03-25T03:59:02.377Z,6.80
2023-03-25T04:00:27.326Z,6.65
2023-03-25T04:01:45.834Z,5.68
2023-03-25T04:02:57.108Z,5.90
2023-03-25T04:04:04.760Z,5.55
2023-03-25T04:05:14.138Z,5.63
2023-03-25T04:06:24.801Z,6.03
2023-03-25T04:07:40.212Z,6.15
2023-03-25T04:09:08.021Z,6.57
2023-03-25T04:10:19.050Z,7.25
2023-03-25T04:11:24.624Z,6.03
2023-03-25T04:12:29.846Z,6.18
2023-03-25T04:13:36.883Z,5.97
2023-03-25T04:14:39.587Z,5.70
2023-03-25T04:15:43.454Z,6.30
2023-03-25T04:16:45.930Z,6.22
2023-03-25T04:17:48.614Z,6.38
2023-03-25T04:18:53.532Z,5.63
2023-03-25T04:19:56.906Z,5.85
2023-03-25T04:21:00.875Z,4.10
2023-03-25T04:22:04.683Z,4.00
2023-03-25T04:23:09.705Z,6.28
2023-03-25T04:24:12.355Z,6.30
2023-03-25T04:25:14.834Z,5.55
2023-03-25T04:26:17.682Z,5.20
2023-03-25T04:27:22.986Z,5.10
2023-03-25T04:28:25.911Z,5.00
2023-03-25T04:29:28.328Z,5.38
2023-03-25T04:30:31.123Z,5.32
2023-03-25T04:31:33.593Z,5.43
2023-03-25T04:32:36.040Z,5.13
2023-03-25T04:33:38.295Z,5.90
2023-03-25T04:34:40.852Z,4.45
2023-03-25T04:35:43.379Z,4.68
2023-03-25T04:36:46.748Z,5.00
2023-03-25T04:37:49.247Z,4.55
2023-03-25T04:38:53.167Z,5.07
2023-03-25T04:39:56.103Z,4.53
2023-03-25T04:40:58.637Z,5.20
2023-03-25T04:42:03.983Z,4.93
2023-03-25T04:43:06.406Z,4.40
2023-03-25T04:44:08.926Z,4.20
2023-03-25T04:45:16.616Z,4.97
2023-03-25T04:46:20.021Z,4.72
2023-03-25T04:47:24.690Z,4.80
2023-03-25T04:48:30.646Z,4.60
2023-03-25T04:49:33.328Z,4.07
2023-03-25T04:50:36.007Z,3.78
2023-03-25T04:51:38.414Z,4.63
2023-03-25T04:52:40.890Z,5.00
2023-03-25T04:53:43.824Z,4.30
2023-03-25T04:54:46.365Z,5.22
2023-03-25T04:55:49.465Z,4.63
2023-03-25T04:56:52.510Z,4.25
2023-03-25T04:57:55.567Z,4.68
2023-03-25T04:58:57.928Z,4.40
2023-03-25T05:00:00.419Z,3.63
2023-03-25T05:01:11.264Z,3.10
2023-03-25T05:02:13.953Z,2.35
2023-03-25T05:03:17.148Z,5.00
2023-03-25T05:04:20.812Z,6.70
2023-03-25T05:05:25.993Z,6.20
2023-03-25T05:06:29.169Z,8.88
2023-03-25T05:07:33.361Z,10.15
2023-03-25T05:08:35.891Z,10.23
2023-03-25T05:09:38.155Z,8.23
2023-03-25T05:10:42.702Z,7.07
2023-03-25T05:11:46.307Z,6.57
2023-03-25T05:12:49.132Z,6.28
2023-03-25T05:13:51.510Z,5.93
2023-03-25T05:14:53.912Z,6.00
2023-03-25T05:15:56.641Z,5.72
2023-03-25T05:17:00.432Z,5.32
2023-03-25T05:18:02.783Z,4.20
2023-03-25T05:19:06.504Z,4.78
2023-03-25T05:20:10.385Z,5.30
2023-03-25T05:21:12.967Z,4.43
2023-03-25T05:22:15.298Z,4.32
2023-03-25T05:23:18.277Z,4.10
2023-03-25T05:24:20.653Z,4.05
2023-03-25T05:25:23.378Z,3.78
2023-03-25T05:26:25.777Z,4.05
2023-03-25T05:27:30.134Z,4.47
2023-03-25T05:28:32.657Z,3.70
2023-03-25T05:29:34.981Z,3.95
2023-03-25T05:30:39.277Z,4.18
2023-03-25T05:31:45.165Z,4.10
2023-03-25T05:32:56.277Z,4.10
2023-03-25T05:33:59.238Z,3.50
2023-03-25T05:35:03.137Z,3.85
2023-03-25T05:36:06.063Z,4.13
2023-03-25T05:37:08.700Z,3.92
2023-03-25T05:38:18.503Z,4.07
2023-03-25T05:39:21.044Z,3.75
2023-03-25T05:40:23.879Z,4.38
2023-03-25T05:41:38.812Z,3.83
2023-03-25T05:42:46.699Z,4.00
2023-03-25T05:43:50.797Z,4.03
2023-03-25T05:44:53.784Z,3.88
2023-03-25T05:45:56.210Z,3.58
2023-03-25T05:47:01.710Z,3.58
2023-03-25T05:48:04.941Z,3.53
2023-03-25T05:49:07.312Z,3.88
2023-03-25T05:50:10.544Z,3.42
2023-03-25T05:51:18.577Z,3.65
2023-03-25T05:52:24.544Z,3.92
2023-03-25T05:53:27.348Z,3.80
2023-03-25T05:54:30.764Z,3.63
2023-03-25T05:55:33.203Z,3.70
2023-03-25T05:56:41.454Z,3.83
2023-03-25T05:57:44.430Z,3.72
2023-03-25T05:58:48.532Z,4.10
2023-03-25T05:59:51.173Z,11.77
2023-03-25T06:00:54.515Z,11.00
2023-03-25T06:01:57.500Z,10.20
2023-03-25T06:03:01.425Z,17.08
2023-03-25T06:04:04.090Z,18.15
2023-03-25T06:05:09.879Z,11.20
2023-03-25T06:06:19.724Z,10.07
2023-03-25T06:07:22.259Z,10.20
2023-03-25T06:08:25.833Z,9.75
2023-03-25T06:09:30.923Z,10.45
2023-03-25T06:10:33.373Z,8.57
2023-03-25T06:11:38.573Z,8.27
2023-03-25T06:12:41.192Z,7.75
2023-03-25T06:13:50.840Z,6.68
2023-03-25T06:14:54.219Z,6.95
2023-03-25T06:15:57.254Z,6.68
2023-03-25T06:16:59.730Z,6.93
2023-03-25T06:18:02.282Z,6.32
2023-03-25T06:19:04.719Z,7.47
2023-03-25T06:20:12.577Z,7.05
2023-03-25T06:21:15.005Z,6.78
2023-03-25T06:22:18.110Z,6.82
2023-03-25T06:23:24.622Z,5.85
2023-03-25T06:24:27.016Z,6.72
2023-03-25T06:25:31.118Z,6.10
2023-03-25T06:26:33.644Z,6.47
2023-03-25T06:27:40.232Z,6.10
2023-03-25T06:28:42.955Z,6.05
2023-03-25T06:29:47.129Z,6.25
2023-03-25T06:30:50.719Z,6.45
2023-03-25T06:31:53.994Z,6.28
2023-03-25T06:32:58.749Z,6.30
2023-03-25T06:34:01.770Z,6.15
2023-03-25T06:35:07.253Z,5.90
2023-03-25T06:36:11.363Z,6.28
2023-03-25T06:37:13.789Z,6.03
2023-03-25T06:38:17.044Z,5.60
2023-03-25T06:39:37.735Z,5.57
2023-03-25T06:40:47.880Z,5.30
2023-03-25T06:41:50.563Z,5.22
2023-03-25T06:42:59.997Z,5.30
2023-03-25T06:44:24.696Z,5.95
2023-03-25T06:46:00.213Z,5.88
2023-03-25T06:47:31.658Z,5.65
2023-03-25T06:48:34.329Z,4.78
2023-03-25T06:49:36.680Z,5.95
2023-03-25T06:50:41.139Z,5.78
2023-03-25T06:51:45.069Z,4.88
2023-03-25T06:52:47.532Z,5.28
2023-03-25T06:53:49.971Z,5.65
2023-03-25T06:54:52.446Z,5.38
2023-03-25T06:55:57.770Z,5.55
2023-03-25T06:57:00.397Z,5.18
2023-03-25T06:58:02.846Z,5.75
2023-03-25T06:59:05.931Z,4.95
2023-03-25T07:00:09.166Z,5.47
2023-03-25T07:01:11.516Z,21.40
2023-03-25T07:02:14.882Z,24.45
2023-03-25T07:03:17.305Z,23.85
2023-03-25T07:04:19.735Z,50.03
2023-03-25T07:05:22.363Z,46.17
2023-03-25T07:06:25.346Z,65.38
2023-03-25T07:07:27.785Z,77.22
2023-03-25T07:08:30.168Z,71.00
2023-03-25T07:09:32.608Z,61.45
2023-03-25T07:10:35.203Z,48.75
2023-03-25T07:11:37.809Z,35.78
2023-03-25T07:12:40.497Z,27.90
2023-03-25T07:13:42.872Z,25.67
2023-03-25T07:14:54.241Z,25.67
2023-03-25T07:16:59.423Z,22.65
2023-03-25T07:18:01.869Z,21.40
2023-03-25T07:19:04.240Z,21.95
2023-03-25T07:20:07.605Z,22.23
2023-03-25T07:21:10.822Z,19.92
2023-03-25T07:22:13.229Z,20.35
2023-03-25T07:23:15.565Z,20.42
2023-03-25T07:24:17.889Z,18.85
2023-03-25T07:25:20.223Z,19.88
2023-03-25T07:26:22.571Z,18.10
2023-03-25T07:27:26.101Z,18.13
2023-03-25T07:28:38.429Z,18.00
2023-03-25T07:29:40.781Z,18.63
2023-03-25T07:30:43.202Z,18.20
2023-03-25T07:31:46.676Z,17.60
2023-03-25T07:32:49.099Z,17.45
2023-03-25T07:33:51.604Z,18.55
2023-03-25T07:34:53.910Z,17.13
2023-03-25T07:35:56.382Z,16.85
2023-03-25T07:36:58.978Z,16.65
2023-03-25T07:38:01.285Z,17.17
2023-03-25T07:39:03.731Z,16.52
2023-03-25T07:40:06.840Z,16.40
2023-03-25T07:41:13.093Z,17.70
2023-03-25T07:42:24.199Z,15.85
2023-03-25T07:43:37.388Z,17.10
2023-03-25T07:44:55.374Z,33.92
2023-03-25T07:45:58.851Z,13.05
2023-03-25T07:47:04.807Z,13.93
2023-03-25T07:48:13.428Z,13.93
2023-03-25T07:49:17.005Z,14.00
2023-03-25T07:50:23.129Z,12.43
2023-03-25T07:51:27.960Z,15.00
2023-03-25T07:52:30.498Z,16.20
2023-03-25T07:53:32.881Z,16.27
2023-03-25T07:54:35.980Z,17.70
2023-03-25T07:55:38.356Z,17.60
2023-03-25T07:56:40.749Z,16.20
2023-03-25T07:57:43.639Z,17.60
2023-03-25T07:58:46.382Z,16.60
2023-03-25T07:59:48.807Z,17.48
2023-03-25T08:00:51.201Z,17.55
2023-03-25T08:01:53.603Z,17.00
2023-03-25T08:02:56.545Z,17.05
2023-03-25T08:03:59.020Z,16.50
2023-03-25T08:05:04.955Z,16.48
2023-03-25T08:06:08.111Z,16.45
2023-03-25T08:07:10.466Z,17.08
2023-03-25T08:08:12.960Z,15.73
2023-03-25T08:09:15.296Z,15.75
2023-03-25T08:10:18.204Z,15.88
2023-03-25T08:11:20.557Z,15.70
2023-03-25T08:12:22.844Z,16.27
2023-03-25T08:13:26.085Z,16.95
2023-03-25T08:14:28.677Z,17.42
2023-03-25T08:15:30.980Z,16.38
2023-03-25T08:16:33.440Z,15.82
2023-03-25T08:17:36.016Z,14.88
2023-03-25T08:18:38.809Z,16.48
2023-03-25T08:19:41.155Z,14.60
2023-03-25T08:20:43.687Z,15.57
2023-03-25T08:21:46.006Z,15.02
2023-03-25T08:22:48.332Z,21.75
2023-03-25T08:24:04.603Z,26.50
2023-03-25T08:25:07.966Z,25.23
2023-03-25T08:26:10.330Z,24.60
2023-03-25T08:27:14.724Z,24.52
2023-03-25T08:28:23.768Z,24.60
2023-03-25T08:29:27.204Z,20.45
2023-03-25T08:30:29.760Z,19.58
2023-03-25T08:31:33.148Z,19.83
2023-03-25T08:32:36.496Z,18.38
2023-03-25T08:33:40.890Z,17.70
2023-03-25T08:34:43.249Z,16.65
2023-03-25T08:35:45.952Z,16.98
2023-03-25T08:36:48.988Z,15.75
2023-03-25T08:37:52.067Z,16.25
2023-03-25T08:38:54.614Z,16.05
2023-03-25T08:39:58.008Z,15.95
2023-03-25T08:41:00.573Z,17.08
2023-03-25T08:42:02.918Z,16.17
2023-03-25T08:43:06.921Z,16.23
2023-03-25T08:44:09.785Z,14.32
2023-03-25T08:45:13.152Z,17.25
2023-03-25T08:46:15.696Z,16.77
2023-03-25T08:47:18.197Z,18.77
2023-03-25T08:48:20.563Z,19.73
2023-03-25T08:49:23.011Z,22.45
2023-03-25T08:50:25.314Z,23.30
2023-03-25T08:51:27.631Z,23.48
2023-03-25T08:52:30.266Z,21.23
2023-03-25T08:53:32.798Z,20.13
2023-03-25T08:54:35.343Z,20.15
2023-03-25T08:55:37.658Z,18.23
2023-03-25T08:56:39.984Z,16.90
2023-03-25T08:57:42.936Z,17.08
2023-03-25T08:58:45.523Z,16.55
2023-03-25T08:59:47.963Z,16.10
2023-03-25T09:00:55.608Z,15.35
2023-03-25T09:02:00.116Z,15.75
2023-03-25T09:03:07.016Z,16.70
2023-03-25T09:04:09.367Z,15.75
2023-03-25T09:05:13.127Z,15.82
2023-03-25T09:06:15.597Z,16.70
2023-03-25T09:07:19.819Z,16.42
2023-03-25T09:08:23.074Z,17.95
2023-03-25T09:09:26.021Z,18.60
2023-03-25T09:10:28.523Z,17.08
2023-03-25T09:11:37.133Z,16.92
2023-03-25T09:12:39.852Z,17.00
2023-03-25T09:13:42.483Z,16.35
2023-03-25T09:14:45.111Z,15.63
2023-03-25T09:15:47.623Z,16.50
2023-03-25T09:16:50.421Z,17.58
2023-03-25T09:17:52.783Z,15.68
2023-03-25T09:18:55.375Z,15.50
2023-03-25T09:19:58.866Z,15.40
2023-03-25T09:21:01.572Z,11.50
2023-03-25T09:22:04.536Z,14.18
2023-03-25T09:23:09.516Z,14.85
2023-03-25T09:24:12.534Z,16.58
2023-03-25T09:25:14.900Z,16.05
2023-03-25T09:26:17.274Z,14.73
2023-03-25T09:27:19.579Z,14.38
2023-03-25T09:28:21.915Z,15.43
2023-03-25T09:29:24.203Z,15.70
2023-03-25T09:30:26.519Z,15.40
2023-03-25T09:31:28.930Z,14.95
2023-03-25T09:32:33.242Z,14.60
2023-03-25T09:33:36.818Z,15.15
2023-03-25T09:34:39.496Z,16.52
2023-03-25T09:35:41.902Z,16.10
2023-03-25T09:36:45.784Z,15.18
2023-03-25T09:37:52.134Z,16.10
2023-03-25T09:38:55.162Z,15.23
2023-03-25T09:39:57.679Z,14.80
2023-03-25T09:41:05.278Z,15.05
2023-03-25T09:42:26.162Z,15.18
2023-03-25T09:43:51.520Z,14.90
2023-03-25T09:45:04.770Z,14.95
2023-03-25T09:46:14.738Z,14.82
2023-03-25T09:47:20.215Z,14.50
2023-03-25T09:48:31.250Z,14.93
2023-03-25T09:49:42.110Z,14.43
2023-03-25T09:50:45.555Z,14.07
2023-03-25T09:51:50.826Z,14.88
2023-03-25T09:53:09.430Z,15.45
2023-03-25T09:54:26.607Z,13.80
2023-03-25T09:55:34.071Z,14.75
2023-03-25T09:56:42.071Z,13.98
2023-03-25T09:57:49.189Z,14.20
2023-03-25T09:59:06.569Z,14.43
2023-03-25T10:00:17.282Z,13.98
2023-03-25T10:01:36.380Z,13.75
2023-03-25T10:03:02.875Z,13.75
2023-03-25T10:04:15.318Z,12.88
2023-03-25T10:05:57.056Z,14.75
2023-03-25T10:07:30.575Z,14.82
2023-03-25T10:08:41.702Z,27.08
2023-03-25T10:10:25.276Z,25.92
2023-03-25T10:11:57.753Z,13.40
2023-03-25T10:13:03.075Z,10.85
2023-03-25T10:14:26.982Z,8.88
2023-03-25T10:16:04.055Z,6.68
2023-03-25T10:17:28.838Z,6.25
2023-03-25T10:18:40.973Z,6.97
2023-03-25T10:19:57.065Z,7.88
2023-03-25T10:21:03.901Z,7.97
2023-03-25T10:22:16.906Z,9.77
2023-03-25T10:23:46.402Z,10.13
2023-03-25T10:24:53.325Z,9.52
2023-03-25T10:26:01.184Z,9.82
2023-03-25T10:27:19.568Z,8.25
2023-03-25T10:28:31.151Z,7.53
2023-03-25T10:29:56.483Z,9.30
2023-03-25T10:31:00.086Z,12.70
2023-03-25T10:32:11.267Z,11.40
2023-03-25T10:33:39.129Z,11.48
2023-03-25T10:34:49.747Z,10.27
2023-03-25T10:35:52.748Z,10.85
2023-03-25T10:36:58.067Z,10.77
2023-03-25T10:38:14.404Z,10.80
2023-03-25T10:39:21.863Z,10.15
2023-03-25T10:40:31.728Z,10.25
2023-03-25T10:41:37.341Z,10.50
2023-03-25T10:43:00.736Z,10.65
2023-03-25T10:44:12.052Z,10.18
2023-03-25T10:46:47.761Z,9.70
2023-03-25T10:47:54.173Z,9.75
2023-03-25T10:48:57.057Z,10.63
2023-03-25T10:49:59.841Z,10.52
2023-03-25T10:51:19.472Z,10.80
2023-03-25T10:52:21.930Z,10.48
2023-03-25T10:53:27.002Z,11.25
2023-03-25T10:54:34.097Z,10.65
2023-03-25T10:55:41.206Z,9.35
2023-03-25T10:56:55.176Z,9.88
2023-03-25T10:57:57.727Z,9.63
2023-03-25T10:59:13.042Z,9.95
2023-03-25T11:00:18.270Z,10.25
2023-03-25T11:01:37.757Z,10.05
2023-03-25T11:02:40.161Z,9.68
2023-03-25T11:03:44.346Z,10.25
2023-03-25T11:04:49.157Z,10.15
2023-03-25T11:05:54.078Z,10.48
2023-03-25T11:06:59.269Z,10.68
2023-03-25T11:08:18.253Z,10.02
2023-03-25T11:09:30.341Z,10.10
2023-03-25T11:10:34.240Z,8.90
2023-03-25T11:11:37.012Z,8.38
2023-03-25T11:12:46.522Z,6.95
2023-03-25T11:13:57.433Z,9.15
2023-03-25T11:15:01.852Z,10.35
2023-03-25T11:16:04.660Z,9.77
2023-03-25T11:17:18.338Z,9.68
2023-03-25T11:18:22.537Z,9.05
2023-03-25T11:19:39.926Z,8.98
2023-03-25T11:20:54.363Z,9.07
2023-03-25T11:22:03.381Z,8.95
2023-03-25T11:23:16.928Z,8.55
2023-03-25T11:24:19.590Z,9.15
2023-03-25T11:25:29.693Z,8.95
2023-03-25T11:26:40.596Z,8.98
2023-03-25T11:27:49.647Z,9.48
2023-03-25T11:28:55.960Z,9.27
2023-03-25T11:30:05.107Z,9.70
2023-03-25T11:31:15.157Z,8.65
2023-03-25T11:32:24.062Z,9.07
2023-03-25T11:33:27.078Z,9.18
2023-03-25T11:34:30.419Z,9.68
2023-03-25T11:35:38.388Z,7.90
2023-03-25T11:36:55.684Z,9.15
2023-03-25T11:38:00.976Z,8.30
2023-03-25T11:39:18.822Z,7.70
2023-03-25T11:40:21.629Z,8.35
2023-03-25T11:41:27.924Z,7.82
2023-03-25T11:42:43.661Z,8.45
2023-03-25T11:43:49.725Z,7.95
2023-03-25T11:44:53.969Z,8.60
2023-03-25T11:45:56.385Z,39.22
2023-03-25T11:47:09.096Z,20.27
2023-03-25T11:48:18.200Z,62.35
2023-03-25T11:49:22.839Z,41.70
2023-03-25T11:50:28.859Z,35.25
2023-03-25T11:51:35.050Z,30.23
2023-03-25T11:52:45.590Z,19.98
2023-03-25T11:54:02.620Z,16.88
2023-03-25T11:55:05.440Z,14.35
2023-03-25T11:56:10.897Z,13.85
2023-03-25T11:57:20.919Z,12.63
2023-03-25T11:58:29.308Z,13.05
2023-03-25T11:59:43.082Z,12.27
2023-03-25T12:00:50.757Z,12.52
2023-03-25T12:02:16.871Z,12.63
2023-03-25T12:03:22.894Z,11.90
2023-03-25T12:04:25.533Z,11.60
2023-03-25T12:05:28.349Z,11.65
2023-03-25T12:06:30.796Z,11.57
2023-03-25T12:07:48.547Z,11.20
2023-03-25T12:09:11.821Z,11.18
2023-03-25T12:10:22.028Z,10.55
2023-03-25T12:11:43.446Z,11.10
2023-03-25T12:13:00.449Z,10.73
2023-03-25T12:14:19.864Z,11.40
2023-03-25T12:15:57.401Z,11.50
2023-03-25T12:17:30.291Z,10.77
2023-03-25T12:18:51.216Z,19.30
2023-03-25T12:20:26.919Z,23.75
2023-03-25T12:22:00.792Z,20.48
2023-03-25T12:23:28.881Z,22.10
2023-03-25T12:25:04.564Z,19.42
2023-03-25T12:26:43.105Z,18.67
2023-03-25T12:28:01.913Z,16.70
2023-03-25T12:29:32.572Z,17.17
2023-03-25T12:30:56.192Z,15.18
2023-03-25T12:32:04.116Z,16.17
2023-03-25T12:33:35.397Z,14.73
2023-03-25T12:34:57.025Z,15.65
2023-03-25T12:37:36.072Z,14.70
2023-03-25T12:39:09.446Z,13.90
2023-03-25T12:40:41.719Z,13.70
2023-03-25T12:42:12.141Z,12.65
2023-03-25T12:43:55.950Z,14.43
2023-03-25T12:45:24.450Z,12.63
2023-03-25T12:46:55.128Z,13.57
2023-03-25T12:48:36.260Z,11.98
2023-03-25T12:50:02.935Z,11.90
2023-03-25T12:51:26.536Z,12.63
2023-03-25T12:52:31.878Z,12.30
2023-03-25T12:53:46.054Z,12.18
2023-03-25T12:54:59.004Z,12.20
2023-03-25T12:56:24.918Z,11.10
2023-03-25T12:57:56.115Z,11.10
2023-03-25T12:59:05.543Z,12.15
2023-03-25T13:00:23.111Z,11.57
2023-03-25T13:01:40.778Z,11.10
2023-03-25T13:02:58.322Z,11.25
2023-03-25T13:04:12.482Z,10.60
2023-03-25T13:05:24.190Z,10.32
2023-03-25T13:06:37.918Z,9.85
2023-03-25T13:07:54.875Z,10.95
2023-03-25T13:09:11.020Z,10.55
2023-03-25T13:10:15.888Z,11.20
2023-03-25T13:11:36.318Z,11.05
2023-03-25T13:12:43.714Z,10.80
2023-03-25T13:13:49.274Z,10.45
2023-03-25T13:15:01.469Z,11.27
2023-03-25T13:16:15.022Z,10.73
2023-03-25T13:17:40.093Z,10.98
2023-03-25T13:18:48.423Z,11.02
2023-03-25T13:20:01.752Z,11.13
2023-03-25T13:21:14.482Z,10.48
2023-03-25T13:22:24.734Z,10.60
2023-03-25T13:23:28.854Z,10.05
2023-03-25T13:25:05.275Z,10.43
2023-03-25T13:26:14.332Z,10.60
2023-03-25T13:27:18.460Z,9.65
2023-03-25T13:28:30.466Z,9.80
2023-03-25T13:29:39.229Z,10.20
2023-03-25T13:30:45.114Z,10.38
2023-03-25T13:31:49.652Z,9.60
2023-03-25T13:32:57.764Z,10.35
2023-03-25T13:34:36.191Z,9.70
2023-03-25T13:35:50.462Z,10.23
2023-03-25T13:37:20.159Z,10.50
2023-03-25T13:38:29.751Z,9.95
2023-03-25T13:40:10.845Z,10.27
2023-03-25T13:41:21.530Z,9.57
2023-03-25T13:42:49.706Z,9.27
2023-03-25T13:44:07.212Z,10.02
2023-03-25T13:45:24.636Z,10.40
2023-03-25T13:46:48.868Z,12.38
2023-03-25T13:48:19.483Z,8.30
2023-03-25T13:49:30.655Z,11.02
2023-03-25T13:50:34.113Z,10.25
2023-03-25T13:51:36.651Z,10.45
2023-03-25T13:52:42.318Z,8.82
2023-03-25T13:54:06.040Z,8.02
2023-03-25T13:55:16.893Z,7.40
2023-03-25T13:56:28.271Z,8.40
2023-03-25T13:58:51.340Z,8.23
2023-03-25T13:59:56.847Z,8.35
2023-03-25T14:01:28.690Z,9.25
2023-03-25T14:03:03.784Z,9.15
2023-03-25T14:04:37.525Z,9.02
2023-03-25T14:05:57.817Z,8.68
2023-03-25T14:07:23.721Z,9.18
2023-03-25T14:08:57.627Z,8.88
2023-03-25T14:10:15.604Z,8.55
2023-03-25T14:11:30.965Z,8.93
2023-03-25T14:12:38.810Z,9.32
2023-03-25T14:13:49.062Z,9.05
2023-03-25T14:15:27.699Z,8.18
2023-03-25T14:16:38.076Z,10.48
2023-03-25T14:17:42.514Z,11.80
2023-03-25T14:18:54.587Z,13.32
2023-03-25T14:20:00.120Z,11.30
2023-03-25T14:21:28.597Z,9.57
2023-03-25T14:22:35.338Z,8.90
2023-03-25T14:23:37.826Z,9.48
2023-03-25T14:24:41.562Z,9.02
2023-03-25T14:25:49.985Z,9.80
2023-03-25T14:27:07.191Z,9.27
2023-03-25T14:28:16.665Z,9.70
2023-03-25T14:29:31.791Z,10.32
2023-03-25T14:30:35.675Z,8.95
2023-03-25T14:31:38.167Z,9.57
2023-03-25T14:32:44.517Z,9.20
2023-03-25T14:34:04.621Z,10.35
2023-03-25T14:35:32.584Z,9.80
2023-03-25T14:36:40.966Z,8.65
2023-03-25T14:37:43.896Z,10.05
2023-03-25T14:38:57.318Z,9.27
2023-03-25T14:40:07.097Z,9.88
2023-03-25T14:41:09.744Z,9.40
2023-03-25T14:42:30.567Z,9.45
2023-03-25T14:43:46.177Z,8.75
2023-03-25T14:44:54.385Z,8.98
2023-03-25T14:46:18.221Z,8.88
2023-03-25T14:47:28.582Z,9.25
2023-03-25T14:48:37.475Z,8.55
2023-03-25T14:49:54.806Z,8.68
2023-03-25T14:51:15.154Z,8.90
2023-03-25T14:52:23.547Z,8.70
2023-03-25T14:53:27.287Z,9.35
2023-03-25T14:54:33.040Z,8.75
2023-03-25T14:55:43.617Z,8.15
2023-03-25T14:56:57.716Z,8.32
2023-03-25T14:58:21.130Z,8.25
2023-03-25T14:59:39.231Z,8.30
2023-03-25T15:00:49.315Z,9.00
2023-03-25T15:01:52.908Z,8.57
2023-03-25T15:03:12.594Z,8.20
2023-03-25T15:04:37.875Z,8.85
2023-03-25T15:05:42.345Z,8.70
2023-03-25T15:06:46.673Z,8.63
2023-03-25T15:07:54.041Z,5.93
2023-03-25T15:08:59.547Z,5.20
2023-03-25T15:10:02.338Z,4.82
2023-03-25T15:11:09.236Z,4.72